createdAt,value
2022-11-26T00:00:41.414Z,6.20
2022-11-26T00:03:12.830Z,6.40
2022-11-26T00:05:41.181Z,6.50
2022-11-26T00:08:24.023Z,6.50
2022-11-26T00:10:53.366Z,6.50
2022-11-26T00:13:22.898Z,6.50
2022-11-26T00:15:50.449Z,6.50
2022-11-26T00:18:18.059Z,6.50
2022-11-26T00:20:45.823Z,6.50
2022-11-26T00:23:22.060Z,6.50
2022-11-26T00:26:01.812Z,6.50
2022-11-26T00:28:34.123Z,6.50
2022-11-26T00:31:01.936Z,6.50
2022-11-26T00:33:29.535Z,6.40
2022-11-26T00:35:58.959Z,6.40
2022-11-26T00:38:26.035Z,6.50
2022-11-26T00:40:52.734Z,6.50
2022-11-26T00:43:19.376Z,6.50
2022-11-26T00:45:47.638Z,6.50
2022-11-26T00:48:15.454Z,6.50
2022-11-26T00:50:48.400Z,6.50
2022-11-26T00:53:17.863Z,6.50
2022-11-26T00:55:46.903Z,6.50
2022-11-26T00:58:33.747Z,6.50
2022-11-26T01:01:00.455Z,6.50
2022-11-26T01:03:27.088Z,6.40
2022-11-26T01:05:57.035Z,6.40
2022-11-26T01:08:33.824Z,6.50
2022-11-26T01:11:02.948Z,6.50
2022-11-26T01:13:30.045Z,6.40
2022-11-26T01:15:58.726Z,6.30
2022-11-26T01:18:25.646Z,6.30
2022-11-26T01:20:52.280Z,6.30
2022-11-26T01:23:20.284Z,6.30
2022-11-26T01:25:47.658Z,6.30
2022-11-26T01:28:18.230Z,6.30
2022-11-26T01:30:45.416Z,6.20
2022-11-26T01:33:12.068Z,6.20
2022-11-26T01:35:38.748Z,6.10
2022-11-26T01:38:05.422Z,6.30
2022-11-26T01:40:54.610Z,6.20
2022-11-26T01:43:24.044Z,6.20
2022-11-26T01:45:50.657Z,6.30
2022-11-26T01:48:43.954Z,6.20
2022-11-26T01:51:12.141Z,6.20
2022-11-26T01:53:54.209Z,6.10
2022-11-26T01:56:47.626Z,6.10
2022-11-26T01:59:36.722Z,6.00
2022-11-26T02:02:04.496Z,6.00
2022-11-26T02:04:37.066Z,5.90
2022-11-26T02:07:04.409Z,6.00
2022-11-26T02:09:31.604Z,5.90
2022-11-26T02:11:58.284Z,6.00
2022-11-26T02:14:38.209Z,6.10
2022-11-26T02:17:08.009Z,6.10
2022-11-26T02:19:34.699Z,6.10
2022-11-26T02:22:33.358Z,6.00
2022-11-26T02:25:47.114Z,6.00
2022-11-26T02:28:57.519Z,6.00
2022-11-26T02:31:37.943Z,5.90
2022-11-26T02:34:37.296Z,5.90
2022-11-26T02:37:19.757Z,6.00
2022-11-26T02:39:46.745Z,6.00
2022-11-26T02:42:26.877Z,5.90
2022-11-26T02:44:57.242Z,6.00
2022-11-26T02:47:27.052Z,5.90
2022-11-26T02:49:55.760Z,5.90
2022-11-26T02:52:24.806Z,5.80
2022-11-26T02:54:52.621Z,5.80
2022-11-26T02:57:23.573Z,5.60
2022-11-26T02:59:50.177Z,5.70
2022-11-26T03:02:48.617Z,5.60
2022-11-26T03:05:17.793Z,5.50
2022-11-26T03:07:49.076Z,5.40
2022-11-26T03:10:16.370Z,5.60
2022-11-26T03:12:42.952Z,5.70
2022-11-26T03:15:10.159Z,5.70
2022-11-26T03:17:36.840Z,5.70
2022-11-26T03:20:04.240Z,5.70
2022-11-26T03:22:30.849Z,5.70
2022-11-26T03:24:57.477Z,5.60
2022-11-26T03:27:24.079Z,5.70
2022-11-26T03:29:50.693Z,5.60
2022-11-26T03:32:17.284Z,5.60
2022-11-26T03:34:43.916Z,5.60
2022-11-26T03:37:10.504Z,5.60
2022-11-26T03:39:37.077Z,5.60
2022-11-26T03:42:03.799Z,5.50
2022-11-26T03:44:30.381Z,5.50
2022-11-26T03:46:56.967Z,5.50
2022-11-26T03:49:23.673Z,5.50
2022-11-26T03:51:50.272Z,5.50
2022-11-26T03:54:16.827Z,5.40
2022-11-26T03:56:43.592Z,5.50
2022-11-26T03:59:10.296Z,5.40
2022-11-26T04:01:36.913Z,5.40
2022-11-26T04:04:03.838Z,5.50
2022-11-26T04:06:30.505Z,5.50
2022-11-26T04:08:57.103Z,5.50
2022-11-26T04:11:23.736Z,5.50
2022-11-26T04:13:50.289Z,5.50
2022-11-26T04:16:16.988Z,5.50
2022-11-26T04:18:43.557Z,5.60
2022-11-26T04:21:10.270Z,5.60
2022-11-26T04:23:37.020Z,5.60
2022-11-26T04:26:04.050Z,5.50
2022-11-26T04:28:30.658Z,5.30
2022-11-26T04:30:57.361Z,5.20
2022-11-26T04:33:26.829Z,5.20
2022-11-26T04:35:54.988Z,5.30
2022-11-26T04:38:25.699Z,5.20
2022-11-26T04:40:52.788Z,5.10
2022-11-26T04:43:19.449Z,5.10
2022-11-26T04:45:46.118Z,5.00
2022-11-26T04:48:12.728Z,5.00
2022-11-26T04:50:39.446Z,4.90
2022-11-26T04:53:06.033Z,4.80
2022-11-26T04:55:32.621Z,4.80
2022-11-26T04:57:59.246Z,4.90
2022-11-26T05:00:26.829Z,5.10
2022-11-26T05:02:53.543Z,5.20
2022-11-26T05:05:20.217Z,5.40
2022-11-26T05:07:46.883Z,5.40
2022-11-26T05:10:13.715Z,5.40
2022-11-26T05:12:40.309Z,5.50
2022-11-26T05:15:07.462Z,5.50
2022-11-26T05:17:34.091Z,5.30
2022-11-26T05:20:00.879Z,5.30
2022-11-26T05:22:27.576Z,5.30
2022-11-26T05:24:54.163Z,5.30
2022-11-26T05:27:20.809Z,5.30
2022-11-26T05:29:47.362Z,5.40
2022-11-26T05:32:14.009Z,5.40
2022-11-26T05:34:41.015Z,5.40
2022-11-26T05:37:07.884Z,5.40
2022-11-26T05:39:34.513Z,5.30
2022-11-26T05:42:06.189Z,5.40
2022-11-26T05:44:35.651Z,5.40
2022-11-26T05:47:02.524Z,5.40
2022-11-26T05:49:29.143Z,5.40
2022-11-26T05:51:55.761Z,5.50
2022-11-26T05:54:22.777Z,5.50
2022-11-26T05:56:49.362Z,5.40
2022-11-26T05:59:15.983Z,5.50
2022-11-26T06:01:43.911Z,5.50
2022-11-26T06:04:10.491Z,5.60
2022-11-26T06:06:37.246Z,5.60
2022-11-26T06:09:04.198Z,5.60
2022-11-26T06:11:30.848Z,5.60
2022-11-26T06:13:57.469Z,5.50
2022-11-26T06:16:24.085Z,5.60
2022-11-26T06:18:50.681Z,5.60
2022-11-26T06:21:17.318Z,5.50
2022-11-26T06:23:52.843Z,5.40
2022-11-26T06:26:21.154Z,5.40
2022-11-26T06:28:47.734Z,5.40
2022-11-26T06:31:14.412Z,5.30
2022-11-26T06:33:41.039Z,5.40
2022-11-26T06:36:07.694Z,5.40
2022-11-26T06:38:34.324Z,5.40
2022-11-26T06:41:02.741Z,5.30
2022-11-26T06:43:29.721Z,5.40
2022-11-26T06:46:02.455Z,5.50
2022-11-26T06:48:29.588Z,5.50
2022-11-26T06:50:56.471Z,5.50
2022-11-26T06:53:23.129Z,5.60
2022-11-26T06:55:49.713Z,5.60
2022-11-26T06:58:16.332Z,5.60
2022-11-26T07:00:42.964Z,5.50
2022-11-26T07:03:10.309Z,5.50
2022-11-26T07:05:37.746Z,5.50
2022-11-26T07:08:04.649Z,5.50
2022-11-26T07:10:31.254Z,5.50
2022-11-26T07:12:58.169Z,5.50
2022-11-26T07:15:24.754Z,5.50
2022-11-26T07:17:51.369Z,5.50
2022-11-26T07:20:18.106Z,5.60
2022-11-26T07:22:44.728Z,5.60
2022-11-26T07:25:12.888Z,5.60
2022-11-26T07:27:40.140Z,5.60
2022-11-26T07:30:07.370Z,5.70
2022-11-26T07:32:33.970Z,5.80
2022-11-26T07:35:01.848Z,5.90
2022-11-26T07:37:28.492Z,5.90
2022-11-26T07:39:55.078Z,5.90
2022-11-26T07:42:21.702Z,5.90
2022-11-26T07:44:48.360Z,6.00
2022-11-26T07:47:14.957Z,6.00
2022-11-26T07:49:41.564Z,6.10
2022-11-26T07:52:08.195Z,6.10
2022-11-26T07:54:34.769Z,6.10
2022-11-26T07:57:01.368Z,6.10
2022-11-26T07:59:27.926Z,6.10
2022-11-26T08:01:54.651Z,6.10
2022-11-26T08:04:21.302Z,6.10
2022-11-26T08:06:47.913Z,6.10
2022-11-26T08:09:14.573Z,6.00
2022-11-26T08:11:41.328Z,6.00
2022-11-26T08:14:11.455Z,6.00
2022-11-26T08:16:38.544Z,6.00
2022-11-26T08:19:10.623Z,6.00
2022-11-26T08:21:38.277Z,6.00
2022-11-26T08:24:05.648Z,6.10
2022-11-26T08:26:36.214Z,6.10
2022-11-26T08:29:05.232Z,6.20
2022-11-26T08:31:32.387Z,6.20
2022-11-26T08:34:00.151Z,6.30
2022-11-26T08:36:28.522Z,6.30
2022-11-26T08:38:55.612Z,6.40
2022-11-26T08:41:23.079Z,6.40
2022-11-26T08:44:07.099Z,6.50
2022-11-26T08:46:36.041Z,6.50
2022-11-26T08:49:04.826Z,6.60
2022-11-26T08:51:31.790Z,6.70
2022-11-26T08:53:58.472Z,6.70
2022-11-26T08:56:25.614Z,6.80
2022-11-26T08:58:52.270Z,6.80
2022-11-26T09:01:22.064Z,6.90
2022-11-26T09:03:52.772Z,6.90
2022-11-26T09:06:21.100Z,7.00
2022-11-26T09:09:06.653Z,7.10
2022-11-26T09:11:35.981Z,7.10
2022-11-26T09:14:02.689Z,7.20
2022-11-26T09:16:29.629Z,7.20
2022-11-26T09:18:56.398Z,7.30
2022-11-26T09:21:23.189Z,7.40
2022-11-26T09:23:49.811Z,7.40
2022-11-26T09:26:16.623Z,7.40
2022-11-26T09:28:43.185Z,7.50
2022-11-26T09:31:09.848Z,7.60
2022-11-26T09:33:36.476Z,7.70
2022-11-26T09:36:14.191Z,7.70
2022-11-26T09:38:41.636Z,7.80
2022-11-26T09:41:26.673Z,7.90
2022-11-26T09:44:11.913Z,7.90
2022-11-26T09:47:11.054Z,8.00
2022-11-26T09:50:07.697Z,8.10
2022-11-26T09:52:42.057Z,8.30
2022-11-26T09:55:15.141Z,8.40
2022-11-26T09:58:02.073Z,8.40
2022-11-26T10:00:33.172Z,8.50
2022-11-26T10:02:59.919Z,8.60
2022-11-26T10:05:47.231Z,8.70
2022-11-26T10:08:22.924Z,8.80
2022-11-26T10:11:02.529Z,8.60
2022-11-26T10:13:43.398Z,8.50
2022-11-26T10:16:12.880Z,8.40
2022-11-26T10:18:58.476Z,8.30
2022-11-26T10:21:58.667Z,8.30
2022-11-26T10:24:39.097Z,8.30
2022-11-26T10:27:13.522Z,8.40
2022-11-26T10:29:46.934Z,8.50
2022-11-26T10:32:23.480Z,8.70
2022-11-26T10:34:52.650Z,8.80
2022-11-26T10:37:24.521Z,9.00
2022-11-26T10:40:01.022Z,9.10
2022-11-26T10:42:44.392Z,9.20
2022-11-26T10:45:23.779Z,9.50
2022-11-26T10:47:50.463Z,9.60
2022-11-26T10:53:22.562Z,9.80
2022-11-26T10:55:51.524Z,9.80
2022-11-26T10:58:24.935Z,9.70
2022-11-26T11:00:51.536Z,9.60
2022-11-26T11:03:51.788Z,9.60
2022-11-26T11:06:20.645Z,9.60
2022-11-26T11:08:51.866Z,9.60
2022-11-26T11:11:30.538Z,9.70
2022-11-26T11:13:57.861Z,9.90
2022-11-26T11:16:32.008Z,10.20
2022-11-26T11:19:02.616Z,10.40
2022-11-26T11:21:35.421Z,10.50
2022-11-26T11:24:15.180Z,10.40
2022-11-26T11:26:49.620Z,10.60
2022-11-26T11:29:29.854Z,10.70
2022-11-26T11:31:57.710Z,10.50
2022-11-26T11:34:38.536Z,10.60
2022-11-26T11:37:23.486Z,10.50
2022-11-26T11:40:04.675Z,10.50
2022-11-26T11:42:32.279Z,10.30
2022-11-26T11:45:00.551Z,10.40
2022-11-26T11:47:42.729Z,10.60
2022-11-26T11:50:38.061Z,10.50
2022-11-26T11:53:28.923Z,10.40
2022-11-26T11:56:26.758Z,10.60
2022-11-26T11:59:08.216Z,10.70
2022-11-26T12:02:21.179Z,10.90
2022-11-26T12:05:06.561Z,10.80
2022-11-26T12:07:43.607Z,10.60
2022-11-26T12:10:56.435Z,10.30
2022-11-26T12:13:25.545Z,10.20
2022-11-26T12:15:55.162Z,10.60
2022-11-26T12:18:48.778Z,10.60
2022-11-26T12:21:17.371Z,10.60
2022-11-26T12:23:55.523Z,10.90
2022-11-26T12:26:34.289Z,10.70
2022-11-26T12:29:12.380Z,10.60
2022-11-26T12:31:44.133Z,10.80
2022-11-26T12:34:16.259Z,10.80
2022-11-26T12:36:50.948Z,10.50
2022-11-26T12:39:42.754Z,10.50
2022-11-26T12:42:48.435Z,10.40
2022-11-26T12:45:18.876Z,10.30
2022-11-26T12:48:00.686Z,10.30
2022-11-26T12:50:42.256Z,10.40
2022-11-26T12:53:33.724Z,10.40
2022-11-26T12:56:23.541Z,10.40
2022-11-26T12:58:59.756Z,10.10
2022-11-26T13:01:27.728Z,10.00
2022-11-26T13:04:14.337Z,9.80
2022-11-26T13:06:48.051Z,9.80
2022-11-26T13:09:39.816Z,9.70
2022-11-26T13:12:46.866Z,9.70
2022-11-26T13:15:40.417Z,9.80
2022-11-26T13:18:19.592Z,9.80
2022-11-26T13:21:14.136Z,9.70
2022-11-26T13:24:19.402Z,9.70
2022-11-26T13:27:23.602Z,9.60
2022-11-26T13:30:15.280Z,9.60
2022-11-26T13:32:50.390Z,9.50
2022-11-26T13:35:45.083Z,9.50
2022-11-26T13:38:40.426Z,9.50
2022-11-26T13:41:52.363Z,9.40
2022-11-26T13:44:37.831Z,9.40
2022-11-26T13:47:13.021Z,9.40
2022-11-26T13:49:56.684Z,9.50
2022-11-26T13:52:25.527Z,9.50
2022-11-26T13:55:08.055Z,9.60
2022-11-26T13:57:40.589Z,9.50
2022-11-26T14:00:08.511Z,9.50
2022-11-26T14:02:37.912Z,9.40
2022-11-26T14:05:10.941Z,9.30
2022-11-26T14:07:37.962Z,9.30
2022-11-26T14:10:28.812Z,9.20
2022-11-26T14:13:04.688Z,9.20
2022-11-26T14:15:43.552Z,9.10
2022-11-26T14:18:15.898Z,9.10
2022-11-26T14:20:57.751Z,9.10
2022-11-26T14:23:45.513Z,9.00
2022-11-26T14:29:31.254Z,8.90
2022-11-26T14:31:58.386Z,8.80
2022-11-26T14:34:38.419Z,8.80
2022-11-26T14:37:17.365Z,8.60
2022-11-26T14:39:44.461Z,8.50
2022-11-26T14:42:19.729Z,8.40
2022-11-26T14:44:46.384Z,8.20
2022-11-26T14:47:21.064Z,8.10
2022-11-26T14:49:54.070Z,7.90
2022-11-26T14:52:28.971Z,7.80
2022-11-26T14:54:59.931Z,7.60
2022-11-26T14:57:37.689Z,7.50
2022-11-26T15:00:07.638Z,7.50
2022-11-26T15:02:40.647Z,7.40
2022-11-26T15:05:21.505Z,7.30
2022-11-26T15:07:59.105Z,7.20
2022-11-26T15:10:27.180Z,7.10
2022-11-26T15:12:56.166Z,7.00
2022-11-26T15:15:24.205Z,6.90
2022-11-26T15:17:55.018Z,6.90
2022-11-26T15:20:23.148Z,6.90
2022-11-26T15:22:52.652Z,6.90
2022-11-26T15:25:27.944Z,6.80
2022-11-26T15:28:00.791Z,6.70
2022-11-26T15:30:29.956Z,6.70
2022-11-26T15:33:02.465Z,6.70
2022-11-26T15:35:30.398Z,6.60
2022-11-26T15:37:57.752Z,6.60
2022-11-26T15:40:32.175Z,6.60
2022-11-26T15:43:02.861Z,6.60
2022-11-26T15:45:39.928Z,6.60
2022-11-26T15:48:27.976Z,6.50
2022-11-26T15:51:05.786Z,6.50
2022-11-26T15:53:35.409Z,6.60
2022-11-26T15:56:03.267Z,6.50
2022-11-26T15:58:41.365Z,6.60
2022-11-26T16:01:18.567Z,6.50
2022-11-26T16:03:48.170Z,6.50
2022-11-26T16:06:28.929Z,6.40
2022-11-26T16:09:06.981Z,6.40
2022-11-26T16:11:36.699Z,6.30
2022-11-26T16:14:38.305Z,6.30
2022-11-26T16:17:18.193Z,6.30
2022-11-26T16:19:54.185Z,6.30
2022-11-26T16:22:27.067Z,6.30
2022-11-26T16:25:07.763Z,6.30
2022-11-26T16:27:34.901Z,6.30
2022-11-26T16:30:15.122Z,6.30
2022-11-26T16:32:41.667Z,6.40
2022-11-26T16:35:37.505Z,6.30
2022-11-26T16:37:55.391Z,6.40
2022-11-26T16:40:22.780Z,6.40
2022-11-26T16:42:49.952Z,6.50
2022-11-26T16:45:17.760Z,6.50
2022-11-26T16:47:52.293Z,6.50
2022-11-26T16:50:21.589Z,6.60
2022-11-26T16:52:48.951Z,6.70
2022-11-26T16:55:18.112Z,6.70
2022-11-26T16:57:51.172Z,6.70
2022-11-26T17:00:22.932Z,6.80
2022-11-26T17:02:50.073Z,6.80
2022-11-26T17:05:17.483Z,6.80
2022-11-26T17:07:46.617Z,6.80
2022-11-26T17:10:21.915Z,6.90
2022-11-26T17:12:49.910Z,6.80
2022-11-26T17:15:17.553Z,6.70
2022-11-26T17:17:44.792Z,6.70
2022-11-26T17:20:20.244Z,6.60
2022-11-26T17:22:46.929Z,6.60
2022-11-26T17:25:14.068Z,6.60
2022-11-26T17:27:42.087Z,6.60
2022-11-26T17:30:15.960Z,6.60
2022-11-26T17:32:42.545Z,6.60
2022-11-26T17:35:09.592Z,6.60
2022-11-26T17:37:36.593Z,6.60
2022-11-26T17:40:04.023Z,6.50
2022-11-26T17:42:36.323Z,6.50
2022-11-26T17:45:03.394Z,6.50
2022-11-26T17:47:30.055Z,6.40
2022-11-26T17:49:56.698Z,6.40
2022-11-26T17:52:23.255Z,6.40
2022-11-26T17:54:49.866Z,6.40
2022-11-26T17:57:16.918Z,6.30
2022-11-26T17:59:44.463Z,6.30
2022-11-26T18:02:11.837Z,6.30
2022-11-26T18:04:38.491Z,6.30
2022-11-26T18:07:12.578Z,6.20
2022-11-26T18:09:40.617Z,6.20
2022-11-26T18:12:09.164Z,6.30
2022-11-26T18:14:41.501Z,6.30
2022-11-26T18:17:11.744Z,6.30
2022-11-26T18:19:43.384Z,6.30
2022-11-26T18:22:14.030Z,6.40
2022-11-26T18:24:40.650Z,6.40
2022-11-26T18:27:07.234Z,6.40
2022-11-26T18:29:33.837Z,6.40
2022-11-26T18:32:01.232Z,6.40
2022-11-26T18:34:28.350Z,6.40
2022-11-26T18:36:55.733Z,6.30
2022-11-26T18:39:23.513Z,6.40
2022-11-26T18:41:50.535Z,6.50
2022-11-26T18:44:17.817Z,6.50
2022-11-26T18:46:45.083Z,6.60
2022-11-26T18:49:12.219Z,6.60
2022-11-26T18:51:39.924Z,6.60
2022-11-26T18:54:06.779Z,6.60
2022-11-26T18:56:33.713Z,6.60
2022-11-26T18:59:00.330Z,6.70
2022-11-26T19:01:29.541Z,6.70
2022-11-26T19:03:57.667Z,6.70
2022-11-26T19:06:29.308Z,6.70
2022-11-26T19:09:19.829Z,6.70
2022-11-26T19:11:47.498Z,6.70
2022-11-26T19:14:15.436Z,6.70
2022-11-26T19:16:43.289Z,6.70
2022-11-26T19:19:10.744Z,6.80
2022-11-26T19:21:37.704Z,6.80
2022-11-26T19:24:06.895Z,6.70
2022-11-26T19:26:35.496Z,6.70
2022-11-26T19:29:04.893Z,6.70
2022-11-26T19:31:39.441Z,6.70
2022-11-26T19:34:09.961Z,6.70
2022-11-26T19:36:37.533Z,6.70
2022-11-26T19:39:05.919Z,6.70
2022-11-26T19:41:33.318Z,6.70
2022-11-26T19:44:01.156Z,6.70
2022-11-26T19:46:28.296Z,6.70
2022-11-26T19:48:56.021Z,6.80
2022-11-26T19:51:24.381Z,6.70
2022-11-26T19:53:52.404Z,6.70
2022-11-26T19:56:27.895Z,6.70
2022-11-26T19:58:57.641Z,6.80
2022-11-26T20:01:25.826Z,6.70
2022-11-26T20:03:52.809Z,6.70
2022-11-26T20:06:26.719Z,6.70
2022-11-26T20:08:54.133Z,6.70
2022-11-26T20:11:21.401Z,6.60
2022-11-26T20:13:49.806Z,6.60
2022-11-26T20:16:21.952Z,6.60
2022-11-26T20:18:49.393Z,6.50
2022-11-26T20:21:24.031Z,6.50
2022-11-26T20:23:51.074Z,6.40
2022-11-26T20:26:26.628Z,6.30
2022-11-26T20:28:53.642Z,6.30
2022-11-26T20:31:23.910Z,6.20
2022-11-26T20:33:52.538Z,6.20
2022-11-26T20:36:22.533Z,6.10
2022-11-26T20:38:57.812Z,6.10
2022-11-26T20:41:26.301Z,6.10
2022-11-26T20:43:58.205Z,6.10
2022-11-26T20:46:26.704Z,6.00
2022-11-26T20:48:53.387Z,5.90
2022-11-26T20:51:21.689Z,5.90
2022-11-26T20:53:51.837Z,5.80
2022-11-26T20:56:20.212Z,5.80
2022-11-26T20:58:47.472Z,5.70
2022-11-26T21:01:23.429Z,5.70
2022-11-26T21:03:50.659Z,5.60
2022-11-26T21:06:21.437Z,5.60
2022-11-26T21:08:50.035Z,5.70
2022-11-26T21:11:17.184Z,5.60
2022-11-26T21:13:43.977Z,5.50
2022-11-26T21:16:13.931Z,5.40
2022-11-26T21:18:40.573Z,5.40
2022-11-26T21:21:09.053Z,5.20
2022-11-26T21:23:38.340Z,5.20
2022-11-26T21:26:07.108Z,5.10
2022-11-26T21:28:33.957Z,4.90
2022-11-26T21:31:08.312Z,4.90
2022-11-26T21:33:34.975Z,4.80
2022-11-26T21:36:17.788Z,4.80
2022-11-26T21:38:48.617Z,4.70
2022-11-26T21:41:16.087Z,4.90
2022-11-26T21:43:44.219Z,5.00
2022-11-26T21:46:14.789Z,5.10
2022-11-26T21:48:41.464Z,5.20
2022-11-26T21:51:10.255Z,5.40
2022-11-26T21:53:37.149Z,5.40
2022-11-26T21:56:08.083Z,5.30
2022-11-26T21:58:36.856Z,5.30
2022-11-26T22:01:10.917Z,5.30
2022-11-26T22:03:39.068Z,5.40
2022-11-26T22:06:06.155Z,5.40
2022-11-26T22:08:34.074Z,5.40
2022-11-26T22:11:00.671Z,5.30
2022-11-26T22:13:27.269Z,5.30
2022-11-26T22:15:54.509Z,5.30
2022-11-26T22:18:21.165Z,5.30
2022-11-26T22:20:53.788Z,5.30
2022-11-26T22:23:22.583Z,5.20
2022-11-26T22:25:49.431Z,5.30
2022-11-26T22:28:16.069Z,5.30
2022-11-26T22:30:42.629Z,5.30
2022-11-26T22:33:09.511Z,5.30
2022-11-26T22:35:36.496Z,5.20
2022-11-26T22:38:03.083Z,5.20
2022-11-26T22:40:29.737Z,5.20
2022-11-26T22:42:56.341Z,5.20
2022-11-26T22:45:23.050Z,5.20
2022-11-26T22:47:52.696Z,5.20
2022-11-26T22:50:19.851Z,5.10
2022-11-26T22:52:46.540Z,5.10
2022-11-26T22:55:13.144Z,5.00
2022-11-26T22:57:40.133Z,5.00
2022-11-26T23:00:12.465Z,5.00
2022-11-26T23:02:38.990Z,5.10
2022-11-26T23:05:06.186Z,5.00
2022-11-26T23:07:33.652Z,5.10
2022-11-26T23:10:00.268Z,5.20
2022-11-26T23:12:26.913Z,5.20
2022-11-26T23:14:53.553Z,5.10
2022-11-26T23:17:20.384Z,5.10
2022-11-26T23:19:46.966Z,5.00
2022-11-26T23:22:13.573Z,5.00
2022-11-26T23:24:40.208Z,4.90
2022-11-26T23:27:06.779Z,4.80
2022-11-26T23:29:33.925Z,4.80
2022-11-26T23:32:00.690Z,4.70
2022-11-26T23:34:27.540Z,4.70
2022-11-26T23:36:54.143Z,4.60
2022-11-26T23:39:20.709Z,4.60
2022-11-26T23:41:47.288Z,4.60
2022-11-26T23:44:13.944Z,4.70
2022-11-26T23:46:40.657Z,4.70
2022-11-26T23:49:07.549Z,4.70
2022-11-26T23:51:34.221Z,4.60
2022-11-26T23:54:00.932Z,4.60
2022-11-26T23:56:32.462Z,4.60
2022-11-26T23:59:04.173Z,4.60
